Big Bear Station Historical Data
Daily Summary for April 25, 2017 Units:  English    Metric   Both
« Previous Day
Next Day »
Daily Weekly Monthly Yearly Custom
  High: Low: Average:
Temperature: 57.9 °F 38.7 °F 46.4 °F
Dew Point: 42.4 °F 22.9 °F 31.9 °F
Humidity: 74 % 45 % 57 %
Wind Speed: 10.9 mph 0.0 mph 4.3 mph
Wind Gust: -999.0 mph - -
Wind:- - West
Pressure: 30.00 in 23.35 in -
Precipitation: 0.00 in    
Historical Graphs
 
 
Tabular Data for April 25, 2017
Time Temperature Dew Point Pressure Wind Wind Speed Wind Gust Humidity Rainfall Rate (Hourly)
00:09 43.9 °F 26.5 °F 29.97 in WNW 6.8 mph -999.0 mph 50 % 0 in
00:24 43.7 °F 25.8 °F 29.95 in NW 6.3 mph -999.0 mph 49 % 0 in
00:40 44.8 °F 27.3 °F 29.95 in NNW 10.9 mph -999.0 mph 50 % 0 in
00:55 44.4 °F 27.4 °F 29.96 in NNW 8.9 mph -999.0 mph 51 % 0 in
01:10 44.1 °F 26.1 °F 29.97 in NNE 4.7 mph -999.0 mph 49 % 0 in
01:25 43.5 °F 26.1 °F 29.97 in NNW 6.8 mph -999.0 mph 50 % 0 in
01:41 43.2 °F 25.8 °F 29.97 in NNW 7.8 mph -999.0 mph 50 % 0 in
01:57 43.0 °F 25.6 °F 29.96 in NW 8.3 mph -999.0 mph 50 % 0 in
02:12 42.6 °F 25.3 °F 29.96 in NNW 6.3 mph -999.0 mph 50 % 0 in
02:28 42.3 °F 24.5 °F 29.97 in NW 5.3 mph -999.0 mph 49 % 0 in
02:43 41.5 °F 23.3 °F 29.96 in WNW 3.2 mph -999.0 mph 48 % 0 in
02:58 41.0 °F 25.2 °F 29.96 in NW 2.7 mph -999.0 mph 53 % 0 in
03:13 40.8 °F 25.4 °F 29.96 in NW 5.8 mph -999.0 mph 54 % 0 in
03:28 40.6 °F 23.9 °F 29.95 in NNW 4.7 mph -999.0 mph 51 % 0 in
03:44 40.5 °F 25.2 °F 29.95 in NNW 5.8 mph -999.0 mph 54 % 0 in
03:59 40.3 °F 23.6 °F 29.96 in NW 5.3 mph -999.0 mph 51 % 0 in
04:14 40.6 °F 22.9 °F 29.95 in NNW 6.3 mph -999.0 mph 49 % 0 in
04:30 40.5 °F 23.8 °F 29.95 in NNE 5.8 mph -999.0 mph 51 % 0 in
04:45 40.5 °F 25.6 °F 29.95 in NNW 7.3 mph -999.0 mph 55 % 0 in
05:01 40.5 °F 24.2 °F 29.94 in NW 9.9 mph -999.0 mph 52 % 0 in
05:17 40.3 °F 25.4 °F 29.94 in WNW 6.8 mph -999.0 mph 55 % 0 in
05:32 39.6 °F 25.2 °F 29.95 in West 4.2 mph -999.0 mph 56 % 0 in
05:47 39.2 °F 24.8 °F 29.95 in NW 5.3 mph -999.0 mph 56 % 0 in
06:02 39.0 °F 25.9 °F 29.95 in NW 8.3 mph -999.0 mph 59 % 0 in
06:18 38.7 °F 26.8 °F 29.95 in WNW 7.8 mph -999.0 mph 62 % 0 in
06:33 38.8 °F 26.1 °F 29.95 in NNW 8.9 mph -999.0 mph 60 % 0 in
06:48 38.8 °F 27.7 °F 29.94 in WNW 10.9 mph -999.0 mph 64 % 0 in
07:03 38.8 °F 28.4 °F 29.95 in NNE 5.8 mph -999.0 mph 66 % 0 in
07:19 38.8 °F 27.7 °F 29.97 in North 8.3 mph -999.0 mph 64 % 0 in
07:34 39.0 °F 27.1 °F 29.97 in North 5.8 mph -999.0 mph 62 % 0 in
07:49 39.2 °F 28.4 °F 29.98 in North 6.8 mph -999.0 mph 65 % 0 in
08:04 39.6 °F 29.5 °F 29.97 in North 5.8 mph -999.0 mph 67 % 0 in
08:20 40.3 °F 29.8 °F 29.98 in NNW 2.7 mph -999.0 mph 66 % 0 in
08:35 40.6 °F 28.2 °F 29.99 in WNW 4.2 mph -999.0 mph 61 % 0 in
08:50 41.7 °F 29.2 °F 29.99 in NW 2.7 mph -999.0 mph 61 % 0 in
09:06 43.0 °F 29.6 °F 29.99 in North 3.2 mph -999.0 mph 59 % 0 in
09:21 44.1 °F 30.3 °F 30.00 in NW 4.2 mph -999.0 mph 58 % 0 in
09:36 45.3 °F 30.1 °F 29.99 in NNW 3.7 mph -999.0 mph 55 % 0 in
09:51 45.5 °F 29.4 °F 30.00 in NE 1.7 mph -999.0 mph 53 % 0 in
10:07 47.1 °F 30.8 °F 30.00 in NNE 2.7 mph -999.0 mph 53 % 0 in
10:22 49.3 °F 30.4 °F 30.00 in NE 2.7 mph -999.0 mph 48 % 0 in
10:37 49.3 °F 30.9 °F 30.00 in NE 2.2 mph -999.0 mph 49 % 0 in
10:52 51.8 °F 31.7 °F 30.00 in North 3.7 mph -999.0 mph 46 % 0 in
11:08 54.1 °F 33.2 °F 30.00 in NW 4.7 mph -999.0 mph 45 % 0 in
11:23 54.0 °F 34.2 °F 30.00 in NW 3.7 mph -999.0 mph 47 % 0 in
11:38 55.6 °F 37.2 °F 23.35 in NNE 5.3 mph -999.0 mph 50 % 0 in
11:53 56.1 °F 37.2 °F 23.36 in West 4.7 mph -999.0 mph 49 % 0 in
12:08 55.6 °F 38.7 °F 23.36 in North 5.3 mph -999.0 mph 53 % 0 in
12:24 56.3 °F 39.9 °F 23.36 in NNW 5.8 mph -999.0 mph 54 % 0 in
12:39 55.2 °F 38.8 °F 23.36 in NW 4.7 mph -999.0 mph 54 % 0 in
12:54 56.3 °F 36.3 °F 23.36 in NW 5.3 mph -999.0 mph 47 % 0 in
13:09 56.5 °F 40.5 °F 23.36 in North 4.7 mph -999.0 mph 55 % 0 in
13:24 53.2 °F 40.1 °F 23.36 in NNW 4.2 mph -999.0 mph 61 % 0 in
13:40 52.7 °F 41.3 °F 23.37 in West 5.8 mph -999.0 mph 65 % 0 in
13:55 52.3 °F 42.4 °F 23.35 in NNW 6.3 mph -999.0 mph 69 % 0 in
14:10 52.0 °F 41.4 °F 23.36 in NNW 4.2 mph -999.0 mph 67 % 0 in
14:26 52.3 °F 40.9 °F 23.36 in NNW 3.7 mph -999.0 mph 65 % 0 in
14:41 53.1 °F 38.7 °F 23.36 in WNW 3.7 mph -999.0 mph 58 % 0 in
14:56 54.9 °F 37.6 °F 23.36 in NNW 3.7 mph -999.0 mph 52 % 0 in
15:11 56.7 °F 37.7 °F 23.36 in NW 4.2 mph -999.0 mph 49 % 0 in
15:26 56.8 °F 36.2 °F 23.36 in WNW 3.7 mph -999.0 mph 46 % 0 in
15:42 57.0 °F 37.0 °F 23.36 in WNW 4.7 mph -999.0 mph 47 % 0 in
15:57 55.6 °F 37.8 °F 23.36 in NNW 4.2 mph -999.0 mph 51 % 0 in
16:12 54.9 °F 34.5 °F 23.36 in NNW 4.2 mph -999.0 mph 46 % 0 in
16:28 55.8 °F 35.3 °F 23.36 in WNW 4.7 mph -999.0 mph 46 % 0 in
16:43 55.6 °F 36.2 °F 23.36 in NE 4.7 mph -999.0 mph 48 % 0 in
16:58 55.4 °F 35.5 °F 23.36 in NNW 5.3 mph -999.0 mph 47 % 0 in
17:14 55.9 °F 37.0 °F 23.36 in NNW 3.7 mph -999.0 mph 49 % 0 in
17:29 57.9 °F 36.7 °F 23.36 in NW 4.7 mph -999.0 mph 45 % 0 in
17:44 57.9 °F 37.8 °F 23.37 in NNW 4.7 mph -999.0 mph 47 % 0 in
17:59 56.1 °F 37.2 °F 23.37 in NNW 3.2 mph -999.0 mph 49 % 0 in
18:15 53.8 °F 38.5 °F 23.37 in NNW 3.7 mph -999.0 mph 56 % 0 in
18:30 51.4 °F 39.6 °F 23.37 in WNW 1.7 mph -999.0 mph 64 % 0 in
18:45 50.5 °F 39.2 °F 23.37 in NW 1.7 mph -999.0 mph 65 % 0 in
19:01 49.3 °F 39.2 °F 23.37 in Calm   -999.0 mph 68 % 0 in
19:16 48.0 °F 37.9 °F 23.37 in Calm   -999.0 mph 68 % 0 in
19:31 46.6 °F 36.6 °F 23.38 in Calm   -999.0 mph 68 % 0 in
19:46 45.3 °F 34.2 °F 23.39 in South 1.7 mph -999.0 mph 65 % 0 in
20:01 44.4 °F 33.0 °F 23.39 in SSE 1.7 mph -999.0 mph 64 % 0 in
20:17 43.9 °F 32.5 °F 23.40 in SSE 1.1 mph -999.0 mph 64 % 0 in
20:32 43.2 °F 32.6 °F 23.40 in SSE 1.1 mph -999.0 mph 66 % 0 in
20:47 42.6 °F 32.4 °F 23.41 in Calm   -999.0 mph 67 % 0 in
21:02 42.3 °F 32.5 °F 23.41 in SSE 1.7 mph -999.0 mph 68 % 0 in
21:18 42.1 °F 32.7 °F 23.42 in SSE 1.7 mph -999.0 mph 69 % 0 in
21:33 41.7 °F 32.6 °F 23.43 in South 2.7 mph -999.0 mph 70 % 0 in
21:48 41.5 °F 33.1 °F 23.43 in Calm   -999.0 mph 72 % 0 in
22:03 41.2 °F 32.5 °F 23.43 in Calm   -999.0 mph 71 % 0 in
22:18 40.6 °F 31.9 °F 23.44 in SE 1.7 mph -999.0 mph 71 % 0 in
22:34 40.6 °F 32.3 °F 23.44 in SSE 1.7 mph -999.0 mph 72 % 0 in
22:49 40.3 °F 32.0 °F 23.44 in Calm   -999.0 mph 72 % 0 in
23:04 39.7 °F 31.4 °F 23.44 in South 1.7 mph -999.0 mph 72 % 0 in
23:19 39.4 °F 30.8 °F 23.44 in Calm   -999.0 mph 71 % 0 in
23:34 39.4 °F 31.5 °F 23.44 in SSW 2.2 mph -999.0 mph 73 % 0 in
23:50 39.0 °F 31.4 °F 23.44 in SSE 1.7 mph -999.0 mph 74 % 0 in
Big Bear CA Weather
Compliments of Weather Underground - 1.5 mb